Time;durP1;ratioP1;P1;durP2;ratioP2;P2;SDS_P1;SDS_P2;PMS_P1;PMS_P2;Temp;Humidity;BMP_temperature;BMP_pressure;BME280_temperature;BME280_humidity;BME280_pressure;Samples;Min_cycle;Max_cycle;Signal;HPM_P1;HPM_P2
2021/07/23 00:00:15;;;;;;;;;13.75;13.00;;;;;24.30;51.15;101542.50;5061708;28;45508;-60
2021/07/23 00:02:40;;;;;;;;;13.75;10.75;;;;;24.27;50.94;101540.16;5061376;28;45916;-61
2021/07/23 00:05:06;;;;;;;;;14.75;10.75;;;;;24.23;51.07;101542.31;5061366;28;45332;-61
2021/07/23 00:07:31;;;;;;;;;12.00;11.00;;;;;24.21;51.58;101538.09;5061522;28;45456;-60
2021/07/23 00:09:57;;;;;;;;;12.00;12.00;;;;;24.18;51.13;101544.66;5061799;28;45477;-60
2021/07/23 00:12:22;;;;;;;;;11.50;10.25;;;;;24.16;51.29;101538.56;5061236;28;45705;-60
2021/07/23 00:14:48;;;;;;;;;11.00;9.50;;;;;24.14;51.80;101542.44;5061287;28;45346;-60
2021/07/23 00:17:13;;;;;;;;;11.75;11.50;;;;;24.10;51.81;101544.59;5061421;28;45625;-60
2021/07/23 00:19:39;;;;;;;;;14.25;11.75;;;;;24.08;51.90;101537.69;5061718;28;45504;-61
2021/07/23 00:22:04;;;;;;;;;17.00;10.00;;;;;24.04;52.07;101537.16;5061054;28;45551;-60
2021/07/23 00:24:31;;;;;;;;;12.50;12.50;;;;;23.99;52.16;101531.41;5061234;28;45288;-61
2021/07/23 00:26:56;;;;;;;;;11.25;9.50;;;;;23.95;52.04;101536.28;5061206;28;45262;-61
2021/07/23 00:29:22;;;;;;;;;12.25;11.00;;;;;23.92;52.04;101533.03;5060229;28;45233;-61
2021/07/23 00:31:47;;;;;;;;;12.50;11.25;;;;;23.88;52.49;101529.84;5061251;28;45505;-60
2021/07/23 00:34:13;;;;;;;;;12.50;12.25;;;;;23.83;52.48;101521.38;5061068;28;45332;-61
2021/07/23 00:36:38;;;;;;;;;16.00;13.00;;;;;23.80;52.60;101521.72;5061276;28;45255;-61
2021/07/23 00:39:04;;;;;;;;;10.00;10.00;;;;;23.78;52.42;101512.09;5061386;28;45288;-61
2021/07/23 00:41:29;;;;;;;;;16.50;11.50;;;;;23.77;52.91;101516.63;5061017;28;45334;-60
2021/07/23 00:43:55;;;;;;;;;13.75;12.25;;;;;23.76;53.10;101517.63;5068771;28;45390;-61
2021/07/23 00:46:22;;;;;;;;;13.00;12.00;;;;;23.74;52.90;101513.41;5081589;28;45363;-60
2021/07/23 00:48:48;;;;;;;;;17.50;12.50;;;;;23.71;53.04;101517.28;5063791;28;45574;-61
2021/07/23 00:51:13;;;;;;;;;10.75;10.00;;;;;23.68;52.96;101521.09;5062951;28;46009;-61
2021/07/23 00:53:39;;;;;;;;;15.00;14.50;;;;;23.65;53.35;101523.28;5081040;27;45413;-58
2021/07/23 00:56:04;;;;;;;;;12.00;10.00;;;;;23.61;53.20;101509.28;5066761;27;45366;-58
2021/07/23 00:58:30;;;;;;;;;12.75;11.75;;;;;23.58;53.48;101509.59;5061156;28;45215;-58
2021/07/23 01:00:57;;;;;;;;;11.25;11.00;;;;;23.55;53.31;101506.38;5060492;28;45219;-59
2021/07/23 01:03:23;;;;;;;;;13.25;10.75;;;;;23.50;53.52;101508.69;5059504;28;45364;-58
2021/07/23 01:05:50;;;;;;;;;10.50;10.25;;;;;23.46;53.78;101507.28;5060756;28;45381;-59
2021/07/23 01:08:16;;;;;;;;;15.00;13.25;;;;;23.37;54.00;101501.00;5043255;28;45483;-59
2021/07/23 01:10:41;;;;;;;;;12.25;11.00;;;;;23.31;54.30;101497.13;5060546;28;46077;-59
2021/07/23 01:13:07;;;;;;;;;10.25;10.25;;;;;23.27;54.58;101494.88;5060709;28;45327;-59
2021/07/23 01:15:32;;;;;;;;;12.75;10.00;;;;;23.22;54.30;101500.69;5059408;28;45389;-59
2021/07/23 01:17:58;;;;;;;;;12.75;11.00;;;;;23.18;54.61;101488.59;5042973;28;45554;-61
2021/07/23 01:20:24;;;;;;;;;11.25;11.25;;;;;23.15;54.68;101485.38;5060286;28;45341;-61
2021/07/23 01:22:50;;;;;;;;;11.00;10.00;;;;;23.15;54.67;101491.59;5059398;28;45351;-61
2021/07/23 01:25:16;;;;;;;;;11.50;11.00;;;;;23.15;55.09;101488.06;5059242;28;45301;-61
2021/07/23 01:27:50;;;;;;;;;12.25;10.25;;;;;23.15;54.87;101488.91;5059641;28;45263;-60
2021/07/23 01:30:15;;;;;;;;;13.00;10.25;;;;;23.16;55.01;101492.44;5058794;28;45275;-60
2021/07/23 01:32:41;;;;;;;;;15.50;13.50;;;;;23.14;55.03;101492.56;5060656;28;45216;-60
2021/07/23 01:35:07;;;;;;;;;13.00;10.25;;;;;23.12;55.11;101483.81;5059078;28;45339;-61
2021/07/23 01:37:33;;;;;;;;;11.00;9.25;;;;;23.10;55.05;101489.34;5060721;28;45239;-60
2021/07/23 01:39:58;;;;;;;;;13.25;12.00;;;;;23.07;55.01;101495.06;5060263;28;46414;-60
2021/07/23 01:42:25;;;;;;;;;12.75;12.50;;;;;23.07;55.27;101486.16;5060485;28;45235;-61
2021/07/23 01:44:51;;;;;;;;;12.75;11.00;;;;;23.06;55.34;101482.59;5074503;28;45346;-60
2021/07/23 01:47:16;;;;;;;;;13.25;10.75;;;;;23.06;55.60;101484.44;5080929;27;45255;-61
2021/07/23 01:49:41;;;;;;;;;13.50;11.25;;;;;23.06;55.00;101485.28;5080396;27;45552;-61
2021/07/23 01:52:07;;;;;;;;;13.00;11.75;;;;;23.03;55.10;101480.22;5080539;27;45325;-60
2021/07/23 01:54:32;;;;;;;;;14.50;10.75;;;;;23.01;55.32;101474.16;5079036;28;45464;-61
2021/07/23 01:56:58;;;;;;;;;13.75;9.50;;;;;22.99;55.68;101475.31;5060358;28;45403;-61
2021/07/23 01:59:23;;;;;;;;;16.75;13.50;;;;;22.99;55.57;101472.63;5059835;28;45481;-61
2021/07/23 02:01:49;;;;;;;;;14.00;10.75;;;;;22.97;55.48;101467.38;5060163;28;45259;-60
2021/07/23 02:04:14;;;;;;;;;14.00;11.75;;;;;22.93;55.50;101467.88;5060020;28;45294;-60
2021/07/23 02:06:40;;;;;;;;;15.75;11.25;;;;;22.92;55.76;101461.66;5061648;28;45220;-60
2021/07/23 02:09:05;;;;;;;;;16.25;12.25;;;;;22.86;55.70;101469.47;5063141;28;45300;-61
2021/07/23 02:11:31;;;;;;;;;12.75;11.00;;;;;22.76;56.12;101467.69;5063578;28;45254;-60
2021/07/23 02:14:00;;;;;;;;;14.75;12.00;;;;;22.72;56.16;101458.22;5063210;28;45279;-60
2021/07/23 02:16:25;;;;;;;;;12.75;10.00;;;;;22.69;56.19;101455.00;5063597;28;45348;-60
2021/07/23 02:18:51;;;;;;;;;15.75;12.75;;;;;22.66;56.27;101466.03;5063135;28;45486;-60
2021/07/23 02:21:16;;;;;;;;;16.25;13.00;;;;;22.61;56.57;101454.94;5063237;28;45474;-61
2021/07/23 02:23:42;;;;;;;;;13.00;12.00;;;;;22.60;56.60;101455.94;5063326;28;45321;-60
2021/07/23 02:26:20;;;;;;;;;13.75;11.25;;;;;22.56;56.72;101458.06;5063456;28;45258;-61
2021/07/23 02:28:46;;;;;;;;;11.50;10.75;;;;;22.55;56.64;101459.06;5062957;28;45284;-61
2021/07/23 02:31:11;;;;;;;;;19.25;16.00;;;;;22.54;56.74;101454.69;5063146;28;45302;-60
2021/07/23 02:33:37;;;;;;;;;17.00;13.25;;;;;22.52;56.77;101462.06;5063101;28;45358;-60
2021/07/23 02:36:03;;;;;;;;;15.00;14.00;;;;;22.48;56.94;101461.50;5063204;28;45303;-60
2021/07/23 02:38:28;;;;;;;;;13.50;12.50;;;;;22.47;57.12;101461.66;5062713;28;45165;-60
2021/07/23 02:40:56;;;;;;;;;13.25;12.00;;;;;22.47;57.24;101459.81;5063033;28;45345;-60
2021/07/23 02:43:23;;;;;;;;;16.25;13.50;;;;;22.49;57.36;101454.28;5066212;28;45331;-60
2021/07/23 02:45:48;;;;;;;;;18.00;14.00;;;;;22.49;57.08;101452.44;5083092;28;45243;-61
2021/07/23 02:48:14;;;;;;;;;14.25;13.00;;;;;22.50;57.31;101456.81;5083131;27;45687;-60
2021/07/23 02:50:39;;;;;;;;;16.50;14.00;;;;;22.47;57.31;101461.66;5083168;27;45317;-60
2021/07/23 02:53:04;;;;;;;;;17.75;15.25;;;;;22.43;57.39;101452.19;5083119;27;45412;-60
2021/07/23 02:55:30;;;;;;;;;16.75;14.00;;;;;22.43;57.56;101453.03;5073335;27;45547;-60
2021/07/23 02:57:55;;;;;;;;;17.00;14.00;;;;;22.44;57.40;101449.38;5062534;28;45311;-60
2021/07/23 03:00:22;;;;;;;;;17.50;14.75;;;;;22.43;57.76;101441.44;5062668;28;45193;-61
2021/07/23 03:02:48;;;;;;;;;17.00;15.25;;;;;22.40;57.50;101445.28;5061432;28;45254;-60
2021/07/23 03:05:13;;;;;;;;;18.75;16.75;;;;;22.37;57.60;101440.22;5062533;28;45268;-60
2021/07/23 03:07:39;;;;;;;;;18.00;15.00;;;;;22.36;57.69;101432.34;5062352;28;46184;-60
2021/07/23 03:10:05;;;;;;;;;16.50;14.50;;;;;22.32;57.65;101438.97;5062596;28;45463;-61
2021/07/23 03:12:30;;;;;;;;;11.25;10.00;;;;;22.28;57.86;101428.56;5062480;28;45358;-60
2021/07/23 03:14:56;;;;;;;;;18.25;14.00;;;;;22.26;57.85;101432.38;5062430;28;45396;-60
2021/07/23 03:17:21;;;;;;;;;20.00;18.25;;;;;22.26;58.26;101430.53;5062013;28;46079;-60
2021/07/23 03:19:47;;;;;;;;;16.25;15.75;;;;;22.24;58.00;101426.31;5062576;28;45435;-61
2021/07/23 03:22:12;;;;;;;;;17.75;14.75;;;;;22.21;58.22;101426.63;5061964;28;45304;-60
2021/07/23 03:24:37;;;;;;;;;18.00;16.00;;;;;22.20;57.99;101428.47;5062202;28;45353;-60
2021/07/23 03:27:03;;;;;;;;;16.00;15.00;;;;;22.18;58.06;101425.06;5062205;28;45306;-60
2021/07/23 03:29:28;;;;;;;;;16.75;15.75;;;;;22.18;58.17;101426.91;5060889;28;45344;-60
2021/07/23 03:31:54;;;;;;;;;20.00;15.50;;;;;22.18;58.07;101429.59;5062258;28;45342;-58
2021/07/23 03:34:19;;;;;;;;;22.50;16.00;;;;;22.20;58.23;101419.56;5062170;28;45372;-60
2021/07/23 03:36:45;;;;;;;;;18.50;16.00;;;;;22.19;58.20;101421.38;5061901;28;45423;-60
2021/07/23 03:39:10;;;;;;;;;14.50;13.00;;;;;22.15;58.50;101424.53;5061949;28;45224;-60
2021/07/23 03:41:36;;;;;;;;;17.50;16.00;;;;;22.11;58.76;101420.44;5061866;28;45147;-60
2021/07/23 03:44:01;;;;;;;;;16.00;15.50;;;;;22.11;58.79;101425.81;5070649;28;45520;-60
2021/07/23 03:46:27;;;;;;;;;21.75;18.75;;;;;22.08;58.51;101429.66;5082061;28;45563;-60
2021/07/23 03:48:53;;;;;;;;;19.75;17.75;;;;;22.06;58.66;101425.41;5082270;27;45204;-60
2021/07/23 03:51:19;;;;;;;;;18.25;16.50;;;;;22.02;58.90;101423.00;5081933;27;45462;-60
2021/07/23 03:53:44;;;;;;;;;20.50;17.00;;;;;22.00;58.78;101426.84;5081950;27;45540;-60
2021/07/23 03:56:10;;;;;;;;;16.50;15.00;;;;;21.97;58.69;101419.09;5066098;27;46004;-60
2021/07/23 03:58:36;;;;;;;;;19.25;16.25;;;;;21.94;58.77;101406.78;5061755;28;45326;-61
2021/07/23 04:01:05;;;;;;;;;17.75;16.25;;;;;21.92;58.84;101394.53;5061810;28;45370;-61
2021/07/23 04:03:32;;;;;;;;;20.00;15.00;;;;;21.86;58.90;101381.72;5061761;28;45250;-60
2021/07/23 04:05:58;;;;;;;;;23.00;19.00;;;;;21.80;59.02;101371.56;5061208;28;46213;-61
2021/07/23 04:08:24;;;;;;;;;19.00;17.00;;;;;21.76;59.33;101368.34;5061493;28;45156;-61
2021/07/23 04:10:49;;;;;;;;;18.75;16.00;;;;;21.70;59.38;101359.06;5061599;28;45423;-60
2021/07/23 04:13:15;;;;;;;;;17.00;15.25;;;;;21.70;59.42;101351.00;5061614;28;45512;-60
2021/07/23 04:15:40;;;;;;;;;18.75;16.50;;;;;21.71;59.90;101359.91;5061114;28;45989;-60
2021/07/23 04:18:06;;;;;;;;;18.00;15.50;;;;;21.68;60.05;101362.88;5061540;28;45322;-61
2021/07/23 04:20:31;;;;;;;;;20.50;19.00;;;;;21.61;60.27;101359.09;5061346;28;45328;-60
2021/07/23 04:22:56;;;;;;;;;21.25;17.75;;;;;21.54;60.11;101369.56;5061416;28;45480;-60
2021/07/23 04:25:22;;;;;;;;;23.00;18.25;;;;;21.52;59.86;101378.75;5060853;28;46048;-61
2021/07/23 04:27:47;;;;;;;;;22.25;17.50;;;;;21.48;60.08;101370.13;5061446;28;45395;-60
2021/07/23 04:30:14;;;;;;;;;24.75;21.00;;;;;21.46;59.99;101370.28;5060375;28;45497;-61
2021/07/23 04:32:39;;;;;;;;;21.75;17.25;;;;;21.47;60.26;101365.78;5061375;28;45408;-61
2021/07/23 04:35:05;;;;;;;;;21.00;17.75;;;;;21.47;60.40;101363.09;5060725;28;45373;-61
2021/07/23 04:37:30;;;;;;;;;24.50;17.25;;;;;21.46;60.25;101362.25;5061081;28;45484;-60
2021/07/23 04:39:56;;;;;;;;;20.00;18.00;;;;;21.45;60.35;101355.22;5061124;28;45410;-60
2021/07/23 04:42:21;;;;;;;;;22.75;17.75;;;;;21.48;60.11;101358.56;5061302;28;45261;-60
2021/07/23 04:44:47;;;;;;;;;18.25;16.50;;;;;21.49;60.19;101353.09;5075660;28;45223;-61
2021/07/23 04:47:12;;;;;;;;;23.75;18.00;;;;;21.46;60.06;101358.72;5081388;28;45273;-61
2021/07/23 04:49:38;;;;;;;;;24.25;17.75;;;;;21.43;60.59;101359.03;5081185;27;45521;-60
2021/07/23 04:52:03;;;;;;;;;17.75;16.25;;;;;21.43;60.37;101359.03;5081344;27;45410;-61
2021/07/23 04:54:29;;;;;;;;;21.75;17.75;;;;;21.42;60.17;101357.34;5079489;27;45235;-61
2021/07/23 04:56:54;;;;;;;;;17.75;17.50;;;;;21.44;60.75;101364.25;5060849;28;45299;-60
2021/07/23 04:59:20;;;;;;;;;19.00;18.00;;;;;21.47;60.54;101349.69;5060639;28;45516;-61
2021/07/23 05:01:45;;;;;;;;;21.25;18.50;;;;;21.48;60.32;101348.69;5060879;28;45326;-60
2021/07/23 05:04:11;;;;;;;;;20.25;18.75;;;;;21.48;60.53;101358.56;5060424;28;45646;-60
2021/07/23 05:06:40;;;;;;;;;19.00;17.25;;;;;21.43;60.31;101361.72;5060842;28;45307;-60
2021/07/23 05:09:06;;;;;;;;;25.00;19.75;;;;;21.44;60.59;101358.88;5059368;28;45340;-61
2021/07/23 05:11:32;;;;;;;;;25.50;22.50;;;;;21.46;60.43;101375.66;5060859;28;45234;-61
2021/07/23 05:13:59;;;;;;;;;22.00;21.00;;;;;21.43;60.42;101373.28;5060267;28;45158;-60
2021/07/23 05:16:24;;;;;;;;;23.50;18.25;;;;;21.41;60.51;101369.06;5060647;28;45283;-60
2021/07/23 05:18:50;;;;;;;;;22.50;18.75;;;;;21.39;60.62;101366.50;5060432;28;45319;-60
2021/07/23 05:21:15;;;;;;;;;22.50;17.00;;;;;21.37;60.50;101365.81;5060745;28;45423;-61
2021/07/23 05:23:42;;;;;;;;;28.25;22.75;;;;;21.38;60.66;101367.50;5059156;28;45350;-61
2021/07/23 05:26:08;;;;;;;;;29.25;22.50;;;;;21.40;60.75;101365.50;5060627;28;45332;-61
2021/07/23 05:28:33;;;;;;;;;20.50;18.00;;;;;21.39;60.21;101363.81;5059220;28;45287;-60
2021/07/23 05:30:59;;;;;;;;;24.25;19.50;;;;;21.42;60.52;101365.38;5060808;28;45366;-60
2021/07/23 05:33:25;;;;;;;;;23.25;20.25;;;;;21.48;60.76;101363.94;5060141;28;46167;-61
2021/07/23 05:35:50;;;;;;;;;18.75;18.00;;;;;21.53;60.54;101359.84;5059192;28;45304;-60
2021/07/23 05:38:16;;;;;;;;;20.25;17.50;;;;;21.60;60.18;101354.72;5060350;28;45480;-60
2021/07/23 05:40:42;;;;;;;;;23.50;18.75;;;;;21.65;59.91;101353.31;5060497;28;45433;-60
2021/07/23 05:43:08;;;;;;;;;27.00;20.50;;;;;21.69;60.12;101357.38;5064522;28;45412;-60
2021/07/23 05:45:37;;;;;;;;;25.00;18.75;;;;;21.78;60.22;101357.47;5083751;28;45242;-60
2021/07/23 05:48:03;;;;;;;;;27.25;21.00;;;;;21.84;59.78;101352.34;5084028;27;45365;-61
2021/07/23 05:50:28;;;;;;;;;19.25;19.00;;;;;21.86;60.01;101347.69;5084225;27;45384;-60
2021/07/23 05:52:55;;;;;;;;;21.25;19.00;;;;;21.88;59.93;101352.91;5083718;27;45687;-60
2021/07/23 05:55:21;;;;;;;;;25.00;19.25;;;;;21.90;59.84;101351.78;5075566;27;45398;-61
2021/07/23 05:57:47;;;;;;;;;19.75;16.75;;;;;21.98;59.67;101351.03;5063583;28;45266;-60
2021/07/23 06:00:12;;;;;;;;;24.25;21.50;;;;;22.07;59.48;101351.97;5063768;28;45313;-60
2021/07/23 06:02:38;;;;;;;;;28.25;17.75;;;;;22.15;59.29;101344.88;5063292;28;45817;-60
2021/07/23 06:05:04;;;;;;;;;21.50;17.75;;;;;22.24;59.27;101338.59;5063373;28;45330;-60
2021/07/23 06:07:29;;;;;;;;;20.25;19.25;;;;;22.29;58.93;101335.47;5063373;28;45177;-61
2021/07/23 06:09:55;;;;;;;;;26.00;20.50;;;;;22.36;58.72;101333.00;5063420;28;45306;-61
2021/07/23 06:12:20;;;;;;;;;20.00;19.00;;;;;22.37;58.85;101324.81;5062999;28;46064;-60
2021/07/23 06:14:46;;;;;;;;;18.50;18.00;;;;;22.43;58.61;101312.59;5062926;28;45476;-60
2021/07/23 06:17:11;;;;;;;;;25.00;18.75;;;;;22.46;58.22;101314.97;5063207;28;45353;-60
2021/07/23 06:19:38;;;;;;;;;20.75;18.25;;;;;22.50;58.35;101310.97;5063324;28;45311;-60
2021/07/23 06:22:05;;;;;;;;;24.25;19.50;;;;;22.53;58.44;101308.84;5062760;28;45522;-60
2021/07/23 06:24:31;;;;;;;;;24.25;18.75;;;;;22.54;58.32;101302.47;5063030;28;45302;-60
2021/07/23 06:26:56;;;;;;;;;31.00;23.50;;;;;22.61;58.30;101299.16;5063091;28;45259;-60
2021/07/23 06:29:22;;;;;;;;;22.75;20.75;;;;;22.68;58.18;101308.28;5063096;28;45237;-60
2021/07/23 06:31:48;;;;;;;;;21.50;20.50;;;;;22.73;58.15;101305.97;5063124;28;45321;-61
2021/07/23 06:34:14;;;;;;;;;22.00;21.75;;;;;22.80;58.15;101307.03;5062813;28;45383;-61
2021/07/23 06:36:39;;;;;;;;;24.50;23.75;;;;;22.88;58.07;101300.91;5062892;28;45316;-61
2021/07/23 06:39:05;;;;;;;;;21.25;19.50;;;;;22.93;57.47;101299.44;5063379;28;45215;-61
2021/07/23 06:41:30;;;;;;;;;22.25;20.00;;;;;22.97;57.78;101295.41;5062489;28;45909;-60
2021/07/23 06:43:56;;;;;;;;;21.50;21.00;;;;;23.07;57.77;101288.13;5070740;28;45294;-61
2021/07/23 06:46:21;;;;;;;;;20.00;19.25;;;;;23.13;57.46;101290.16;5083031;28;45251;-61
2021/07/23 06:48:47;;;;;;;;;18.50;16.50;;;;;23.21;57.30;101281.28;5083348;27;45575;-60
2021/07/23 06:51:13;;;;;;;;;22.00;18.00;;;;;23.32;57.70;101282.88;5082660;27;46084;-60
2021/07/23 06:53:39;;;;;;;;;21.00;18.00;;;;;23.43;57.27;101285.28;5082269;27;45307;-60
2021/07/23 06:56:05;;;;;;;;;23.00;23.00;;;;;23.49;56.53;101291.84;5068299;27;45399;-60
2021/07/23 06:58:31;;;;;;;;;22.50;19.00;;;;;23.52;56.92;101289.66;5062449;28;45228;-60
2021/07/23 07:01:00;;;;;;;;;24.00;18.50;;;;;23.58;56.88;101293.56;5062227;28;45259;-61
2021/07/23 07:03:26;;;;;;;;;20.00;18.75;;;;;23.60;56.35;101283.50;5061163;28;45394;-60
2021/07/23 07:05:51;;;;;;;;;25.25;22.75;;;;;23.66;56.55;101281.03;5062427;28;45402;-60
2021/07/23 07:08:18;;;;;;;;;19.50;19.00;;;;;23.71;56.07;101285.09;5062711;28;46541;-61
2021/07/23 07:10:43;;;;;;;;;19.50;18.00;;;;;23.73;56.61;101283.91;5062507;28;46164;-60
2021/07/23 07:13:09;;;;;;;;;21.75;18.25;;;;;23.78;55.92;101281.59;5062285;28;45326;-60
2021/07/23 07:15:34;;;;;;;;;24.00;18.50;;;;;23.84;55.95;101278.22;5062123;28;45310;-60
2021/07/23 07:18:00;;;;;;;;;21.25;17.25;;;;;23.89;55.77;101275.03;5062554;28;45244;-60
2021/07/23 07:20:26;;;;;;;;;21.50;18.75;;;;;23.94;55.34;101272.72;5062127;28;45445;-61
2021/07/23 07:22:52;;;;;;;;;21.75;19.00;;;;;23.95;55.18;101264.47;5062094;28;45323;-61
2021/07/23 07:25:19;;;;;;;;;18.00;17.00;;;;;23.97;55.62;101264.28;5062083;28;45396;-60
2021/07/23 07:27:44;;;;;;;;;18.00;17.00;;;;;24.00;55.23;101260.41;5061116;28;45524;-61
2021/07/23 07:30:10;;;;;;;;;22.50;17.75;;;;;24.00;55.33;101276.56;5061677;28;45527;-60
2021/07/23 07:32:35;;;;;;;;;22.25;18.75;;;;;24.01;55.36;101264.78;5061967;28;45444;-61
2021/07/23 07:35:01;;;;;;;;;24.50;20.50;;;;;24.04;55.06;101270.69;5061614;28;45398;-60
2021/07/23 07:37:26;;;;;;;;;27.50;19.00;;;;;24.11;55.01;101278.97;5060516;28;45382;-60
2021/07/23 07:39:51;;;;;;;;;19.25;16.00;;;;;24.16;55.13;101280.13;5061235;28;45715;-60
2021/07/23 07:42:17;;;;;;;;;19.50;19.50;;;;;24.19;55.01;101277.13;5061565;28;45333;-60
2021/07/23 07:44:44;;;;;;;;;22.00;16.50;;;;;24.22;54.90;101284.00;5076309;28;45337;-60
2021/07/23 07:47:10;;;;;;;;;19.75;19.50;;;;;24.25;54.59;101283.66;5082409;27;45388;-60
2021/07/23 07:49:35;;;;;;;;;23.00;19.00;;;;;24.30;54.49;101278.63;5081838;28;46355;-60
2021/07/23 07:52:00;;;;;;;;;27.00;18.50;;;;;24.36;54.62;101278.00;5082240;27;45262;-60
2021/07/23 07:54:26;;;;;;;;;22.00;21.50;;;;;24.40;54.37;101271.25;5081205;27;45432;-60
2021/07/23 07:56:52;;;;;;;;;21.50;16.75;;;;;24.44;54.45;101271.78;5061801;28;45322;-61
2021/07/23 07:59:18;;;;;;;;;21.75;18.25;;;;;24.48;54.32;101262.34;5061249;28;45456;-60
2021/07/23 08:01:43;;;;;;;;;23.75;20.50;;;;;24.50;54.57;101261.19;5061761;28;45264;-60
2021/07/23 08:04:09;;;;;;;;;22.25;20.75;;;;;24.52;54.28;101255.63;5060573;28;45345;-60
2021/07/23 08:06:37;;;;;;;;;26.00;24.50;;;;;24.52;54.22;101252.91;5061373;28;45259;-60
2021/07/23 08:09:05;;;;;;;;;22.75;20.00;;;;;24.52;54.62;101254.78;5061589;28;45307;-60
2021/07/23 08:11:32;;;;;;;;;17.50;16.75;;;;;24.56;54.39;101262.31;5061541;28;45269;-61
2021/07/23 08:13:58;;;;;;;;;24.00;21.50;;;;;24.60;54.51;101255.59;5059966;28;45350;-60
2021/07/23 08:16:23;;;;;;;;;23.50;21.00;;;;;24.67;54.31;101255.78;5060519;28;45616;-60
2021/07/23 08:18:49;;;;;;;;;18.25;17.50;;;;;24.74;54.36;101244.16;5061212;28;45929;-61
2021/07/23 08:21:14;;;;;;;;;19.50;19.25;;;;;24.80;53.99;101248.00;5061685;28;45326;-61
2021/07/23 08:23:40;;;;;;;;;21.50;18.00;;;;;24.83;53.70;101247.66;5061448;28;45135;-61
2021/07/23 08:26:05;;;;;;;;;22.50;17.50;;;;;24.88;54.10;101234.50;5061834;28;45433;-60
2021/07/23 08:28:32;;;;;;;;;19.00;18.50;;;;;24.96;53.08;101225.56;5060881;28;45802;-60
2021/07/23 08:30:57;;;;;;;;;25.50;23.00;;;;;25.03;53.42;101237.34;5061231;28;45476;-60
2021/07/23 08:33:23;;;;;;;;;23.50;21.50;;;;;25.12;53.27;101235.47;5061108;28;45532;-61
2021/07/23 08:35:51;;;;;;;;;23.00;20.75;;;;;25.18;52.83;101234.78;5061277;28;45416;-60
2021/07/23 08:38:17;;;;;;;;;22.75;22.75;;;;;25.25;52.77;101233.91;5059697;28;45349;-60
2021/07/23 08:40:43;;;;;;;;;22.50;20.00;;;;;25.29;52.27;101226.34;5061333;28;45419;-61
2021/07/23 08:43:09;;;;;;;;;21.50;19.00;;;;;25.37;51.97;101233.53;5062405;28;45238;-60
2021/07/23 08:45:34;;;;;;;;;20.25;19.75;;;;;25.45;51.65;101226.25;5081399;28;45187;-60
2021/07/23 08:48:00;;;;;;;;;25.25;19.00;;;;;25.55;51.81;101218.78;5080029;28;45252;-60
2021/07/23 08:50:25;;;;;;;;;23.50;20.75;;;;;25.63;52.01;101217.06;5081130;27;45322;-60
2021/07/23 08:52:51;;;;;;;;;24.25;22.50;;;;;25.67;52.20;101213.81;5081366;27;45318;-60
2021/07/23 08:55:18;;;;;;;;;21.75;20.00;;;;;25.74;52.21;101214.81;5072781;28;45392;-60
2021/07/23 08:57:44;;;;;;;;;25.00;22.50;;;;;25.78;51.43;101212.59;5059443;28;45339;-60
2021/07/23 09:00:10;;;;;;;;;21.50;20.75;;;;;25.85;50.94;101209.00;5060653;28;45461;-60
2021/07/23 09:02:59;;;;;;;;;21.50;19.50;;;;;25.87;50.83;101212.38;5059567;28;45287;-60
2021/07/23 09:05:29;;;;;;;;;22.00;20.50;;;;;25.87;51.02;101211.53;5060676;28;45204;-60
2021/07/23 09:08:16;;;;;;;;;21.50;20.25;;;;;25.91;51.11;101217.41;5060659;28;46059;-60
2021/07/23 09:10:43;;;;;;;;;19.00;19.00;;;;;25.94;50.65;101209.78;5060697;28;45184;-60
2021/07/23 09:13:08;;;;;;;;;24.25;19.25;;;;;26.00;50.38;101205.53;5059352;28;45260;-60
2021/07/23 09:15:41;;;;;;;;;19.50;18.00;;;;;26.02;50.63;101201.63;5061569;28;45301;-61
2021/07/23 09:18:30;;;;;;;;;22.25;18.75;;;;;26.04;50.36;101204.97;5064271;28;46118;-60
2021/07/23 09:21:03;;;;;;;;;23.00;19.00;;;;;26.09;50.58;101194.50;5063860;28;45411;-59
2021/07/23 09:23:32;;;;;;;;;20.00;20.00;;;;;26.12;50.27;101193.28;5063755;28;45303;-60
2021/07/23 09:26:13;;;;;;;;;24.25;21.00;;;;;26.15;50.37;101190.25;5064240;28;45584;-60
2021/07/23 09:28:40;;;;;;;;;23.50;21.75;;;;;26.23;50.73;101181.19;5063765;28;45311;-60
2021/07/23 09:31:06;;;;;;;;;25.75;24.50;;;;;26.30;50.09;101176.75;5064092;28;45351;-60
2021/07/23 09:33:35;;;;;;;;;33.75;30.00;;;;;26.38;50.06;101179.38;5063829;28;45275;-60
2021/07/23 09:36:03;;;;;;;;;23.00;18.75;;;;;26.47;49.67;101180.19;5064129;28;45256;-60
2021/07/23 09:38:36;;;;;;;;;19.50;18.00;;;;;26.54;49.18;101171.13;5063796;28;46062;-61
2021/07/23 09:41:01;;;;;;;;;21.25;20.50;;;;;26.61;48.93;101163.97;5062698;28;45282;-60
2021/07/23 09:43:30;;;;;;;;;24.25;20.75;;;;;26.73;48.93;101158.94;5067597;28;45288;-61
2021/07/23 09:46:17;;;;;;;;;22.75;19.25;;;;;26.87;49.10;101166.22;5084296;28;45330;-60
2021/07/23 09:48:43;;;;;;;;;21.00;18.25;;;;;27.03;49.14;101157.06;5068551;27;45604;-60
2021/07/23 09:51:09;;;;;;;;;17.75;17.25;;;;;27.15;48.39;101161.00;5083702;27;45400;-60
2021/07/23 09:53:35;;;;;;;;;23.25;20.50;;;;;27.18;48.10;101144.41;5083968;27;45298;-60
2021/07/23 09:56:06;;;;;;;;;22.50;21.50;;;;;27.24;47.49;101146.31;5069139;27;45311;-60
2021/07/23 09:58:36;;;;;;;;;20.75;19.25;;;;;27.24;47.58;101134.66;5063228;28;45366;-60
2021/07/23 10:01:01;;;;;;;;;25.00;21.75;;;;;27.27;47.89;101132.44;5063187;28;45243;-60
2021/07/23 10:03:27;;;;;;;;;21.25;19.25;;;;;27.40;47.61;101136.31;5062162;28;45338;-60
2021/07/23 10:06:10;;;;;;;;;22.50;20.50;;;;;27.49;47.25;101119.78;5061786;28;45573;-61
2021/07/23 10:08:36;;;;;;;;;25.25;22.00;;;;;27.61;47.12;101108.44;5061761;28;45426;-60
2021/07/23 10:11:01;;;;;;;;;21.50;16.75;;;;;27.68;46.87;101099.38;5063140;28;45285;-60
2021/07/23 10:13:29;;;;;;;;;17.00;16.75;;;;;27.70;46.74;101093.75;5063293;28;45422;-60
2021/07/23 10:15:54;;;;;;;;;23.25;19.00;;;;;27.71;46.55;101090.03;5063150;28;45311;-60
2021/07/23 10:18:20;;;;;;;;;24.25;21.50;;;;;27.76;46.39;101084.88;5061938;28;45369;-62
2021/07/23 10:20:47;;;;;;;;;20.75;17.50;;;;;27.77;46.97;101078.41;5062717;28;45358;-60
2021/07/23 10:23:19;;;;;;;;;23.50;21.25;;;;;27.78;46.46;101077.38;5063244;28;45334;-61
2021/07/23 10:25:52;;;;;;;;;19.25;17.50;;;;;27.72;46.44;101070.88;5061793;28;45267;-61
2021/07/23 10:28:36;;;;;;;;;19.25;17.00;;;;;27.70;45.42;101067.53;5044081;28;46214;-60
2021/07/23 10:31:01;;;;;;;;;13.75;13.25;;;;;27.66;44.96;101062.69;5072038;28;45242;-60
2021/07/23 10:33:52;;;;;;;;;19.25;15.50;;;;;27.66;45.12;101059.97;5083231;27;45231;-60
2021/07/23 10:36:27;;;;;;;;;18.00;17.25;;;;;27.63;45.26;101049.53;5083322;28;45673;-60
2021/07/23 10:39:08;;;;;;;;;20.75;17.75;;;;;27.64;45.01;101041.19;5083070;27;45345;-60
2021/07/23 10:41:37;;;;;;;;;19.00;16.50;;;;;27.64;44.85;101041.19;5082568;27;45222;-61
2021/07/23 10:44:04;;;;;;;;;19.00;17.75;;;;;27.69;44.47;101037.94;5077413;27;45400;-61
2021/07/23 10:46:45;;;;;;;;;18.50;16.75;;;;;27.80;44.60;101040.13;5081717;28;45273;-59
2021/07/23 10:49:11;;;;;;;;;22.25;21.00;;;;;27.95;44.99;101031.91;5083027;27;46070;-61
2021/07/23 10:51:49;;;;;;;;;22.25;18.00;;;;;28.08;45.29;101035.53;5082970;27;45420;-60
2021/07/23 10:54:19;;;;;;;;;19.75;18.25;;;;;28.14;44.05;101024.97;5083127;27;45528;-60
2021/07/23 10:57:03;;;;;;;;;20.25;17.50;;;;;28.24;44.29;101023.56;5063176;27;45484;-60
2021/07/23 10:59:37;;;;;;;;;23.25;17.50;;;;;28.31;43.03;101024.47;5062117;28;46220;-59
2021/07/23 11:02:03;;;;;;;;;17.25;15.75;;;;;28.38;43.20;101021.78;5062484;28;45255;-60
2021/07/23 11:04:29;;;;;;;;;17.25;15.50;;;;;28.45;42.95;101019.94;5062193;28;45223;-60
2021/07/23 11:06:59;;;;;;;;;20.50;15.75;;;;;28.50;43.41;101005.78;5062717;28;45296;-60